Juan Jose Castelli, Argentina
Current Conditions -  °F | °C
As of 11:00 AM on Thursday 30 Oct 2014 (Local Time) from SARE Reporting Station
Overcast Overcast  
Wind Chill: 70°   Ceiling: 400
Heat Index: 70°   Visibility: 6mi
Dew Point: 66°   Wind: 22mph
Humidity: 88%   Direction: 70°ENE
Pressure: 29.71"   Gusts: NA
Location:  25.95°S, 60.62°W
Report Text: SARE 301400Z 07019KT 9999 BKN004 BKN018 OVC100 21/19 Q1006 RETSRA
Loading
Personal Weather Stations






























Interactive Weather Map
Tropical Storm Tracking
New forecast layout! Learn more

10-Day Weather Forecast

Advertisements
Track Severe Weather on mobile